Weather observations for the past three days for
Sand Point
| Date | Time (akdt) | Wind (mph) | Vis. (mi.) | Weather | Sky Cond. | Temperature (ºF) | Relative Humidity | Wind Chill (°F) | Heat Index (°F) | Pressure | Precipitation (in) | ||||||
|---|---|---|---|---|---|---|---|---|---|---|---|---|---|---|---|---|---|
| Air | Dwpt | 6 hour | altimeter (in) | sea level (mb) | 1 hr | 3 hr | 6 hr | ||||||||||
| Max. | Min. | ||||||||||||||||
| 10 | 13:56 | W 6 | 10.00 | Overcast | BKN029 OVC035 | 34 | 21.9 | 61% | 29 | 29.68 | 1005.2 | ||||||
| 10 | 12:56 | NW 6 | 10.00 | Overcast | BKN029 OVC035 | 33.1 | 21 | 61% | 28 | 29.68 | 1005.1 | ||||||
| 10 | 11:56 | NW 8 | 10.00 | Overcast | BKN029 OVC040 | 32 | 21 | 64% | 25 | 29.67 | 1004.9 | ||||||
| 10 | 10:56 | W 8 | 10.00 | Overcast | BKN026 OVC035 | 32 | 23 | 69% | 25 | 29.66 | 1004.6 | ||||||
| 10 | 09:56 | NW 7 | 10.00 | Overcast | BKN026 OVC035 | 30.9 | 21.9 | 30.9 | 30 | 69% | 25 | 29.64 | 1003.9 | ||||
| 10 | 08:56 | NW 9 | 10.00 | Overcast | BKN026 OVC035 | 30.9 | 21.9 | 69% | 24 | 29.63 | 1003.5 | ||||||
| 10 | 07:56 | N 12 | 10.00 | Mostly Cloudy | SCT026 BKN035 | 30 | 21.9 | 72% | 21 | 29.61 | 1003.0 | ||||||
| 10 | 06:56 | N 10 | 10.00 | Overcast | OVC026 | 30 | 23 | 75% | 22 | 29.61 | 1003.0 | ||||||
| 10 | 05:56 | NW 12 | 10.00 | Overcast | BKN024 OVC035 | 30 | 23 | 75% | 21 | 29.61 | 1002.8 | ||||||
| 10 | 04:56 | NW 12 | 10.00 | Overcast | OVC033 | 30 | 23 | 75% | 21 | 29.6 | 1002.6 | ||||||
| 10 | 03:56 | N 13 | 10.00 | Partly Cloudy | FEW022 SCT032 | 30.9 | 24.1 | 36 | 30.9 | 76% | 22 | 29.59 | 1002.3 | ||||
| 10 | 02:56 | NW 10 | 10.00 | Overcast | BKN022 OVC032 | 32 | 25 | 75% | 24 | 29.59 | 1002.1 | ||||||
| 10 | 01:56 | NW 13 | 10.00 | Mostly Cloudy | BKN022 | 33.1 | 25 | 72% | 25 | 29.58 | 1001.8 | ||||||
| 10 | 00:56 | N 10 | 10.00 | A Few Clouds | FEW020 | 32 | 25 | 75% | 24 | 29.57 | 1001.6 | ||||||
| 09 | 23:56 | N 13 | 10.00 | Fair | CLR | 33.1 | 26.1 | 75% | 25 | 29.57 | 1001.5 | ||||||
| 09 | 22:56 | N 13 | 10.00 | Fair | CLR | 34 | 27 | 76% | 26 | 29.55 | 1001.0 | ||||||
| 09 | 21:56 | NW 12 | 10.00 | Fair | CLR | 36 | 28 | 45 | 36 | 73% | 29 | 29.53 | 1000.3 | ||||
| 09 | 20:56 | N 15 | 10.00 | Fair | CLR | 39 | 28.9 | 67% | 31 | 29.51 | 999.6 | ||||||
| 09 | 19:56 | N 16 | 10.00 | Mostly Cloudy | BKN060 | 39.9 | 30 | 68% | 32 | 29.49 | 999.0 | ||||||
| 09 | 18:56 | N 20 | 10.00 | Partly Cloudy | FEW024 SCT036 SCT060 | 42.1 | 30 | 62% | 34 | 29.49 | 998.8 | ||||||
| 09 | 16:56 | NE 13 | 10.00 | Mostly Cloudy | SCT036 BKN045 | 44.1 | 30 | 58% | 38 | 29.48 | 998.6 | ||||||
| 09 | 15:56 | N 9 | 10.00 | Mostly Cloudy | SCT036 BKN045 | 44.1 | 28.9 | 45 | 35.1 | 55% | 40 | 29.49 | 998.7 | ||||
| 09 | 14:56 | N 8 | 10.00 | Partly Cloudy | SCT038 SCT090 | 43 | 26.1 | 51% | 39 | 29.49 | 998.7 | ||||||
| 09 | 13:56 | NE 8 | 10.00 | A Few Clouds | FEW035 FEW090 | 42.1 | 28 | 58% | 38 | 29.49 | 998.9 | ||||||
| 09 | 12:56 | N 10 | 10.00 | A Few Clouds | FEW038 FEW090 | 41 | 27 | 57% | 35 | 29.49 | 999.0 | ||||||
| 09 | 11:56 | NE 10 | 10.00 | A Few Clouds | FEW040 | 37.9 | 27 | 65% | 32 | 29.5 | 999.2 | ||||||
| 09 | 10:56 | N 8 | 10.00 | A Few Clouds | FEW040 | 37 | 27 | 67% | 32 | 29.51 | 999.4 | ||||||
| 09 | 09:56 | N 9 | 10.00 | A Few Clouds | FEW040 | 35.1 | 26.1 | 36 | 30.9 | 70% | 29 | 29.51 | 999.5 | ||||
| 09 | 08:56 | NW 12 | 10.00 | A Few Clouds | FEW050 | 34 | 25 | 70% | 26 | 29.51 | 999.6 | ||||||
| 09 | 07:56 | NW 7 | 10.00 | A Few Clouds | FEW038 | 32 | 26.1 | 79% | 26 | 29.52 | 999.8 | ||||||
| 09 | 06:56 | NW 9 | 10.00 | A Few Clouds | FEW035 | 32 | 26.1 | 79% | 25 | 29.52 | 999.9 | ||||||
| 09 | 05:56 | NW 9 | 10.00 | Fair | CLR | 32 | 28 | 85% | 25 | 29.53 | 1000.3 | ||||||
| 09 | 04:56 | NW 13 | 10.00 | Fair | CLR | 33.1 | 28 | 82% | 25 | 29.54 | 1000.5 | ||||||
| 09 | 03:56 | NW 6 | 10.00 | Fair | CLR | 33.1 | 28 | 39 | 33.1 | 82% | 28 | 29.55 | 1000.8 | ||||
| 09 | 02:56 | N 9 | 10.00 | Fair | CLR | 33.1 | 28.9 | 85% | 26 | 29.56 | 1001.3 | ||||||
| 09 | 01:56 | N 9 | 10.00 | Fair | CLR | 34 | 27 | 76% | 27 | 29.57 | 1001.7 | ||||||
| 09 | 00:56 | N 6 | 10.00 | Fair | CLR | 35.1 | 28 | 76% | 31 | 29.58 | 1001.9 | ||||||
| 08 | 23:56 | N 8 | 10.00 | Fair | CLR | 35.1 | 30 | 82% | 29 | 29.59 | 1002.3 | ||||||
| 08 | 22:56 | N 12 | 10.00 | Fair | CLR | 37 | 30 | 76% | 30 | 29.6 | 1002.5 | ||||||
| 08 | 20:56 | N 12 | 10.00 | Fair | CLR | 39.9 | 30 | 68% | 34 | 29.6 | 1002.6 | ||||||
| 08 | 19:56 | N 16 | 10.00 | A Few Clouds | FEW030 | 41 | 30 | 65% | 33 | 29.61 | 1002.9 | ||||||
| 08 | 18:56 | N 15 | 10.00 | A Few Clouds | FEW030 | 42.1 | 30 | 62% | 35 | 29.62 | 1003.3 | ||||||
| 08 | 17:56 | N 13 | 10.00 | A Few Clouds | FEW030 FEW038 | 42.1 | 30.9 | 65% | 36 | 29.63 | 1003.6 | ||||||
| 08 | 16:56 | N 13 | 10.00 | Partly Cloudy | FEW030 SCT038 | 42.1 | 33.1 | 71% | 36 | 29.65 | 1004.1 | ||||||
| 08 | 15:56 | NE 12 | 10.00 | Mostly Cloudy | FEW030 SCT038 BKN045 | 43 | 33.1 | 43 | 37.9 | 68% | 37 | 29.66 | 1004.6 | ||||
| 08 | 14:56 | NE 13 | 10.00 | Partly Cloudy | FEW033 SCT040 | 42.1 | 33.1 | 71% | 36 | 29.67 | 1005.0 | ||||||
| 08 | 13:56 | NE 12 | 10.00 | Partly Cloudy | FEW037 SCT050 | 41 | 32 | 70% | 35 | 29.69 | 1005.4 | ||||||
| 08 | 12:56 | N 10 | 10.00 | Partly Cloudy | FEW035 SCT060 | 41 | 32 | 70% | 35 | 29.7 | 1006.0 | ||||||
| 08 | 11:56 | N 12 | 10.00 | Partly Cloudy | FEW030 SCT037 | 39.9 | 30 | 68% | 34 | 29.72 | 1006.6 | ||||||
| 08 | 10:56 | N 9 | 10.00 | Partly Cloudy | FEW037 SCT055 | 39.9 | 30 | 68% | 34 | 29.73 | 1007.0 | ||||||
| 08 | 09:56 | N 9 | 10.00 | A Few Clouds | FEW028 FEW050 | 37.9 | 30 | 37.9 | 34 | 73% | 32 | 29.74 | 1007.3 | ||||
| 08 | 08:56 | N 12 | 10.00 | A Few Clouds | FEW021 FEW045 | 37 | 30 | 76% | 30 | 29.75 | 1007.6 | ||||||
| 08 | 07:56 | N 9 | 10.00 | A Few Clouds | FEW021 FEW045 | 34 | 30 | 85% | 27 | 29.76 | 1007.9 | ||||||
| 08 | 06:56 | N 9 | 10.00 | Partly Cloudy | FEW022 SCT050 | 34 | 30 | 85% | 27 | 29.76 | 1008.1 | ||||||
| 08 | 05:56 | N 9 | 10.00 | Mostly Cloudy | BKN029 | 35.1 | 30 | 82% | 29 | 29.78 | 1008.7 | ||||||
| 08 | 04:56 | N 9 | 10.00 | Overcast | FEW016 OVC027 | 36 | 30.9 | 82% | 30 | 29.79 | 1009.1 | ||||||
| 08 | 03:56 | N 9 | 10.00 | Overcast | BKN020 OVC028 | 36 | 30.9 | 37.9 | 35.1 | 82% | 30 | 29.81 | 1009.6 | ||||
| 08 | 02:56 | N 8 | 10.00 | Overcast | BKN016 OVC024 | 37 | 32 | 82% | 32 | 29.83 | 1010.2 | ||||||
| 08 | 01:56 | Calm | 10.00 | Overcast | OVC020 | 36 | 30.9 | 82% | 29.83 | 1010.5 | |||||||
| 08 | 00:56 | Calm | 10.00 | Overcast | SCT020 OVC030 | 35.1 | 30 | 82% | 29.85 | 1011.0 | |||||||
| 07 | 23:56 | Calm | 10.00 | Overcast | OVC030 | 37 | 30 | 76% | 29.86 | 1011.4 | |||||||
| 07 | 22:56 | Calm | 10.00 | Overcast | OVC024 | 37 | 28.9 | 73% | 29.87 | 1011.8 | |||||||
| 07 | 21:56 | Vrbl 3 | 10.00 | Overcast | OVC022 | 37.9 | 28.9 | 41 | 37.9 | 70% | 29.87 | 1011.8 | |||||
| 07 | 20:56 | NE 3 | 10.00 | A Few Clouds | FEW024 | 39 | 28.9 | 67% | 29.88 | 1011.9 | |||||||
| 07 | 19:56 | N 6 | 10.00 | Fair | CLR | 39 | 28.9 | 67% | 35 | 29.88 | 1011.9 | ||||||
| 07 | 18:56 | Vrbl 6 | 10.00 | A Few Clouds | FEW048 FEW060 | 39.9 | 28.9 | 65% | 36 | 29.89 | 1012.3 | ||||||
| 07 | 17:56 | N 9 | 10.00 | A Few Clouds | FEW048 FEW060 | 41 | 28.9 | 62% | 36 | 29.9 | 1012.8 | ||||||
| 07 | 16:56 | NE 9 | 10.00 | A Few Clouds | FEW035 FEW060 | 41 | 28 | 60% | 36 | 29.92 | 1013.5 | ||||||
| 07 | 15:56 | Vrbl 5 | 10.00 | Mostly Cloudy | FEW027 SCT032 BKN045 | 39 | 27 | 42.1 | 37 | 62% | 36 | 29.95 | 1014.3 | ||||
| 07 | 14:56 | N 6 | 10.00 | Mostly Cloudy | FEW027 SCT032 BKN040 | 39.9 | 27 | 60% | 36 | 29.96 | 1014.7 | ||||||
| Date | Time (akdt) | Wind (mph) | Vis. (mi.) | Weather | Sky Cond. | Air | Dwpt | Max. | Min. | Relative Humidity | Wind Chill (°F) | Heat Index (°F) | altimeter (in) | sea level (mb) | 1 hr | 3 hr | 6 hr |
| 6 hour | |||||||||||||||||
| Temperature (ºF) | Pressure | Precipitation (in) | |||||||||||||||